Time;durP1;ratioP1;P1;durP2;ratioP2;P2;SDS_P1;SDS_P2;PMS_P1;PMS_P2;Temp;Humidity;BMP_temperature;BMP_pressure;BME280_temperature;BME280_humidity;BME280_pressure;Samples;Min_cycle;Max_cycle;Signal;HPM_P1;HPM_P2
2022/06/26 00:03:52;;;;;;;;;;;;;;;17.59;95.59;99067.59;7744754;30;19939;-78
2022/06/26 00:07:53;;;;;;;;;;;;;;;17.61;95.17;99068.41;7749705;30;19935;-78
2022/06/26 00:11:55;;;;;;;;;;;;;;;17.57;95.48;99072.06;7758625;30;20022;-78
2022/06/26 00:15:57;;;;;;;;;;;;;;;17.60;95.22;99076.34;7746362;30;19962;-78
2022/06/26 00:19:58;;;;;;;;;;;;;;;17.57;95.14;99061.53;7750961;30;20322;-78
2022/06/26 00:24:00;;;;;;;;;;;;;;;17.59;95.27;99059.72;7747305;30;19945;-78
2022/06/26 00:28:01;;;;;;;;;;;;;;;17.56;94.67;99080.84;7759439;30;20011;-78
2022/06/26 00:32:03;;;;;;;;;;;;;;;17.51;94.81;99073.16;7742917;30;19973;-77
2022/06/26 00:36:05;;;;;;;;;;;;;;;17.50;95.12;99066.19;7749708;30;20029;-79
2022/06/26 00:40:06;;;;;;;;;;;;;;;17.45;94.58;99085.66;7764200;30;19940;-78
2022/06/26 00:44:15;;;;;;;;;;;;;;;17.40;94.50;99100.69;7747793;30;20079;-78
2022/06/26 00:48:17;;;;;;;;;;;;;;;17.34;95.10;99099.16;7749262;30;20046;-78
2022/06/26 00:52:18;;;;;;;;;;;;;;;17.32;95.92;99101.00;7747578;30;20378;-78
2022/06/26 00:56:20;;;;;;;;;;;;;;;17.28;96.05;99109.03;7749300;30;20451;-78
2022/06/26 01:00:22;;;;;;;;;;;;;;;17.27;95.85;99102.94;7745499;30;19939;-78
2022/06/26 01:04:25;;;;;;;;;;;;;;;17.24;96.08;99102.19;7742222;30;19942;-78
2022/06/26 01:08:27;;;;;;;;;;;;;;;17.23;96.08;99096.06;7760176;30;19936;-78
2022/06/26 01:12:28;;;;;;;;;;;;;;;17.19;96.39;99092.69;7745817;30;20469;-78
2022/06/26 01:16:30;;;;;;;;;;;;;;;17.14;95.71;99088.53;7738344;30;19951;-79
2022/06/26 01:20:32;;;;;;;;;;;;;;;17.06;95.46;99091.44;7763893;30;19936;-78
2022/06/26 01:24:33;;;;;;;;;;;;;;;16.98;95.53;99088.22;7734443;30;19944;-78
2022/06/26 01:28:35;;;;;;;;;;;;;;;16.91;95.67;99084.97;7750231;30;19946;-78
2022/06/26 01:32:36;;;;;;;;;;;;;;;16.86;95.67;99086.88;7744708;30;20046;-78
2022/06/26 01:36:38;;;;;;;;;;;;;;;16.82;95.85;99100.16;7774683;30;19940;-78
2022/06/26 01:40:40;;;;;;;;;;;;;;;16.75;95.40;99098.66;7777994;30;19931;-78
2022/06/26 01:44:41;;;;;;;;;;;;;;;16.65;95.36;99095.44;7761563;30;20325;-78
2022/06/26 01:48:43;;;;;;;;;;;;;;;16.59;95.13;99088.66;7760519;30;20416;-79
2022/06/26 01:52:45;;;;;;;;;;;;;;;16.59;95.71;99082.56;7776060;30;19939;-79
2022/06/26 01:56:46;;;;;;;;;;;;;;;16.53;96.06;99070.53;7761637;30;20557;-78
2022/06/26 02:00:48;;;;;;;;;;;;;;;16.49;95.85;99066.28;7755862;30;19958;-78
2022/06/26 02:04:49;;;;;;;;;;;;;;;16.37;96.50;99060.59;7777722;30;20046;-78
2022/06/26 02:08:52;;;;;;;;;;;;;;;16.31;97.04;99056.41;7777343;30;20050;-78
2022/06/26 02:17:13;;;;;;;;;;;;;;;16.18;96.63;99042.00;7770103;30;20022;-77
2022/06/26 02:21:17;;;;;;;;;;;;;;;16.13;96.45;99036.03;7758092;30;19939;-78
2022/06/26 02:25:18;;;;;;;;;;;;;;;16.10;96.25;99050.09;7778367;30;20022;-78
2022/06/26 02:29:19;;;;;;;;;;;;;;;16.07;96.61;99065.91;7778534;30;19988;-78
2022/06/26 02:33:22;;;;;;;;;;;;;;;16.04;95.97;99058.16;7766149;30;19999;-78
2022/06/26 02:37:23;;;;;;;;;;;;;;;16.03;96.20;99056.47;7777964;30;19931;-78
2022/06/26 02:41:24;;;;;;;;;;;;;;;16.06;95.84;99042.41;7762468;30;20225;-78
2022/06/26 02:45:26;;;;;;;;;;;;;;;15.96;95.60;99044.44;7770421;30;19931;-78
2022/06/26 02:49:27;;;;;;;;;;;;;;;15.92;95.80;99045.44;7777641;30;20307;-78
2022/06/26 02:53:29;;;;;;;;;;;;;;;15.96;96.47;99033.97;7776903;30;19934;-78
2022/06/26 02:57:30;;;;;;;;;;;;;;;15.95;96.07;99046.19;7750494;30;20381;-78
2022/06/26 03:01:32;;;;;;;;;;;;;;;15.90;95.91;99045.50;7755980;30;19939;-77
2022/06/26 03:05:33;;;;;;;;;;;;;;;15.84;95.80;99050.94;7783206;30;19935;-78
2022/06/26 03:09:35;;;;;;;;;;;;;;;15.79;96.29;99068.53;7771666;30;19935;-78
2022/06/26 03:13:36;;;;;;;;;;;;;;;15.84;96.79;99073.66;7758053;30;19967;-79
2022/06/26 03:17:38;;;;;;;;;;;;;;;15.87;96.88;99084.88;7756622;30;20026;-77
2022/06/26 03:21:39;;;;;;;;;;;;;;;15.78;97.13;99095.63;7757000;30;19985;-78
2022/06/26 03:25:41;;;;;;;;;;;;;;;15.78;97.29;99105.22;7771774;30;19998;-77
2022/06/26 03:29:42;;;;;;;;;;;;;;;15.79;97.77;99120.88;7773996;30;19939;-78
2022/06/26 03:33:44;;;;;;;;;;;;;;;15.82;97.89;99120.81;7764084;30;19932;-80
2022/06/26 03:37:48;;;;;;;;;;;;;;;15.87;97.95;99124.16;7780458;30;20010;-80
2022/06/26 03:42:01;;;;;;;;;;;;;;;15.86;97.86;99137.28;7744362;30;20026;-80
2022/06/26 03:46:15;;;;;;;;;;;;;;;15.92;98.11;99103.06;7743251;30;19942;-80
2022/06/26 03:50:41;;;;;;;;;;;;;;;16.04;98.03;99097.44;7763528;30;19970;-80
2022/06/26 03:55:07;;;;;;;;;;;;;;;16.12;98.21;99084.97;7784171;30;19942;-80
2022/06/26 03:59:12;;;;;;;;;;;;;;;16.20;98.58;99100.44;7750667;30;19935;-81
2022/06/26 04:03:27;;;;;;;;;;;;;;;16.09;97.95;99120.88;7732567;30;19935;-80
2022/06/26 04:07:45;;;;;;;;;;;;;;;16.00;98.15;99120.25;7774538;30;19935;-79
2022/06/26 04:11:49;;;;;;;;;;;;;;;16.05;98.77;99106.16;7770037;30;19935;-79
2022/06/26 04:15:58;;;;;;;;;;;;;;;16.14;98.70;99104.09;7767048;30;19935;-79
2022/06/26 04:20:10;;;;;;;;;;;;;;;16.19;98.66;99102.22;7781358;30;19935;-80
2022/06/26 04:24:29;;;;;;;;;;;;;;;16.23;98.42;99093.34;7782083;30;19934;-79
2022/06/26 04:28:53;;;;;;;;;;;;;;;16.28;98.54;99101.03;7769524;30;19942;-79
2022/06/26 04:33:07;;;;;;;;;;;;;;;16.27;97.90;99110.66;7765133;30;19943;-79
2022/06/26 04:37:31;;;;;;;;;;;;;;;16.35;98.17;99110.44;7765587;30;19939;-79
2022/06/26 04:41:36;;;;;;;;;;;;;;;16.39;98.19;99129.53;7762500;30;19945;-79
2022/06/26 04:45:51;;;;;;;;;;;;;;;16.53;98.32;99132.56;7777006;30;20012;-79
2022/06/26 04:50:01;;;;;;;;;;;;;;;16.62;97.53;99140.13;7780897;30;19931;-79
2022/06/26 04:54:07;;;;;;;;;;;;;;;16.73;97.31;99137.19;7754854;30;19945;-80
2022/06/26 04:58:17;;;;;;;;;;;;;;;16.89;97.28;99148.88;7757265;30;19935;-79
2022/06/26 05:02:48;;;;;;;;;;;;;;;17.00;97.02;99141.47;7769444;30;19966;-80
2022/06/26 05:07:01;;;;;;;;;;;;;;;17.05;95.40;99149.19;7764535;30;19935;-80
2022/06/26 05:11:25;;;;;;;;;;;;;;;17.09;94.98;99156.06;7771387;30;19935;-80
2022/06/26 05:15:46;;;;;;;;;;;;;;;17.09;95.27;99148.19;7753255;30;19934;-81
2022/06/26 05:19:54;;;;;;;;;;;;;;;17.12;94.85;99162.06;7775848;30;20017;-80
2022/06/26 05:24:18;;;;;;;;;;;;;;;17.15;94.27;99167.19;7768072;30;20229;-80
2022/06/26 05:28:22;;;;;;;;;;;;;;;17.17;94.23;99165.38;7785178;30;19945;-80
2022/06/26 05:32:39;;;;;;;;;;;;;;;17.21;94.44;99160.88;7781595;30;19976;-80
2022/06/26 05:36:47;;;;;;;;;;;;;;;17.24;93.67;99176.53;7772056;30;19935;-79
2022/06/26 05:40:48;;;;;;;;;;;;;;;17.28;93.42;99174.66;7757096;30;19935;-79
2022/06/26 05:44:49;;;;;;;;;;;;;;;17.36;93.15;99168.19;7741783;30;20026;-79
2022/06/26 05:48:51;;;;;;;;;;;;;;;17.44;92.79;99160.94;7778082;30;20309;-80
2022/06/26 05:52:53;;;;;;;;;;;;;;;17.54;93.57;99179.81;7762528;30;20052;-78
2022/06/26 05:56:54;;;;;;;;;;;;;;;17.68;93.84;99205.63;7771417;30;19935;-79
2022/06/26 06:00:56;;;;;;;;;;;;;;;17.76;93.50;99200.91;7768505;30;20062;-80
2022/06/26 06:04:57;;;;;;;;;;;;;;;17.88;92.46;99205.72;7766031;30;19935;-79
2022/06/26 06:08:59;;;;;;;;;;;;;;;18.02;92.50;99218.38;7759865;30;19935;-79
2022/06/26 06:13:01;;;;;;;;;;;;;;;18.10;91.41;99218.91;7771090;30;19967;-78
2022/06/26 06:17:35;;;;;;;;;;;;;;;18.18;89.78;99213.38;7773521;30;19985;-79
2022/06/26 06:21:24;;;;;;;;;;;;;;;18.19;89.35;99215.09;7765926;30;20442;-80
2022/06/26 06:25:26;;;;;;;;;;;;;;;18.19;89.42;99228.25;7763229;30;19978;-79
2022/06/26 06:29:29;;;;;;;;;;;;;;;18.22;89.98;99222.88;7775291;30;20051;-79
2022/06/26 06:33:31;;;;;;;;;;;;;;;18.28;89.39;99220.84;7761026;30;19935;-80
2022/06/26 06:37:32;;;;;;;;;;;;;;;18.33;88.77;99234.69;7750824;30;20053;-80
2022/06/26 06:41:35;;;;;;;;;;;;;;;18.46;88.31;99236.81;7774409;30;20025;-80
2022/06/26 06:45:36;;;;;;;;;;;;;;;18.57;87.50;99232.00;7779281;30;19985;-80
2022/06/26 06:49:38;;;;;;;;;;;;;;;18.67;86.79;99228.13;7757795;30;19939;-79
2022/06/26 06:53:41;;;;;;;;;;;;;;;19.04;86.73;99219.63;7768141;30;19957;-81
2022/06/26 06:57:43;;;;;;;;;;;;;;;19.37;85.91;99219.94;7769210;30;19982;-80
2022/06/26 07:01:44;;;;;;;;;;;;;;;19.71;83.78;99227.25;7767398;30;19939;-80
2022/06/26 07:05:46;;;;;;;;;;;;;;;19.65;81.81;99230.19;7769409;30;19935;-80
2022/06/26 07:09:48;;;;;;;;;;;;;;;19.61;82.43;99218.94;7756114;30;19974;-79
2022/06/26 07:13:50;;;;;;;;;;;;;;;19.54;82.48;99222.72;7759803;30;19962;-79
2022/06/26 07:17:51;;;;;;;;;;;;;;;19.40;81.00;99235.63;7762645;30;19931;-81
2022/06/26 07:21:53;;;;;;;;;;;;;;;19.47;81.24;99249.38;7753327;30;19950;-81
2022/06/26 07:25:56;;;;;;;;;;;;;;;20.09;80.79;99243.97;7745237;30;19997;-81
2022/06/26 07:29:57;;;;;;;;;;;;;;;20.72;76.98;99234.03;7756731;30;20004;-79
2022/06/26 07:34:17;;;;;;;;;;;;;;;21.11;74.81;99219.78;7759040;30;19948;-79
2022/06/26 07:38:19;;;;;;;;;;;;;;;21.33;73.40;99220.44;7766872;30;19932;-80
2022/06/26 07:42:20;;;;;;;;;;;;;;;21.42;73.96;99229.69;7765831;30;19973;-80
2022/06/26 07:46:22;;;;;;;;;;;;;;;21.27;72.63;99241.91;7745850;30;19941;-79
2022/06/26 07:50:24;;;;;;;;;;;;;;;21.11;72.54;99248.84;7766431;30;19935;-80
2022/06/26 07:54:25;;;;;;;;;;;;;;;20.89;72.00;99253.47;7769884;30;19985;-80
2022/06/26 07:58:27;;;;;;;;;;;;;;;20.85;71.20;99258.06;7766618;30;20246;-80
2022/06/26 08:02:28;;;;;;;;;;;;;;;21.15;73.17;99253.03;7767497;30;20030;-80
2022/06/26 08:06:30;;;;;;;;;;;;;;;21.30;71.72;99269.94;7768192;30;20259;-80
2022/06/26 08:10:31;;;;;;;;;;;;;;;21.38;71.23;99279.19;7765171;30;19974;-80
2022/06/26 08:14:33;;;;;;;;;;;;;;;21.21;70.39;99273.88;7775667;30;20436;-80
2022/06/26 08:18:35;;;;;;;;;;;;;;;21.05;71.57;99278.19;7772909;30;19931;-79
2022/06/26 08:22:36;;;;;;;;;;;;;;;21.01;72.36;99280.13;7770811;30;20534;-79
2022/06/26 08:26:38;;;;;;;;;;;;;;;20.90;72.54;99289.50;7766818;30;20011;-80
2022/06/26 08:30:39;;;;;;;;;;;;;;;20.62;74.21;99287.31;7756491;30;20030;-80
2022/06/26 08:34:41;;;;;;;;;;;;;;;20.48;75.62;99293.25;7766205;30;20015;-80
2022/06/26 08:38:43;;;;;;;;;;;;;;;20.60;75.70;99302.34;7763164;30;19989;-80
2022/06/26 08:42:48;;;;;;;;;;;;;;;20.81;74.10;99299.53;7774336;30;19935;-80
2022/06/26 08:46:55;;;;;;;;;;;;;;;21.05;72.65;99291.41;7769791;30;20615;-80
2022/06/26 08:50:56;;;;;;;;;;;;;;;21.16;71.62;99290.84;7755829;30;19935;-77
2022/06/26 08:54:58;;;;;;;;;;;;;;;21.09;71.19;99298.22;7752528;30;19935;-77
2022/06/26 08:59:00;;;;;;;;;;;;;;;21.03;72.28;99309.97;7765528;30;20334;-77
2022/06/26 09:03:01;;;;;;;;;;;;;;;20.75;71.56;99297.22;7767633;30;19935;-77
2022/06/26 09:07:05;;;;;;;;;;;;;;;20.52;73.39;99300.06;7769149;30;20034;-77
2022/06/26 09:11:07;;;;;;;;;;;;;;;20.37;74.23;99296.34;7767636;30;20321;-77
2022/06/26 09:15:15;;;;;;;;;;;;;;;20.16;74.25;99292.03;7768519;30;19935;-77
2022/06/26 09:19:19;;;;;;;;;;;;;;;19.97;75.42;99292.00;7769494;30;19939;-77
2022/06/26 09:23:20;;;;;;;;;;;;;;;19.86;78.61;99299.50;7770556;30;19935;-77
2022/06/26 09:27:26;;;;;;;;;;;;;;;19.78;79.82;99312.19;7765983;30;19942;-78
2022/06/26 09:31:27;;;;;;;;;;;;;;;19.77;79.96;99310.47;7767603;30;19935;-77
2022/06/26 09:35:29;;;;;;;;;;;;;;;19.74;79.52;99295.63;7751306;30;19946;-77
2022/06/26 09:39:32;;;;;;;;;;;;;;;19.79;78.03;99295.44;7764874;30;19970;-77
2022/06/26 09:43:33;;;;;;;;;;;;;;;19.83;79.03;99289.13;7768217;30;19946;-77
2022/06/26 09:47:35;;;;;;;;;;;;;;;19.85;79.59;99296.03;7766146;30;19974;-77
2022/06/26 09:51:37;;;;;;;;;;;;;;;19.81;79.29;99283.06;7766264;30;19942;-77
2022/06/26 09:55:38;;;;;;;;;;;;;;;19.81;79.21;99277.78;7767784;30;20022;-77
2022/06/26 09:59:40;;;;;;;;;;;;;;;19.82;78.88;99288.25;7769130;30;19967;-77
2022/06/26 10:08:22;;;;;;;;;;;;;;;19.69;80.32;99287.06;7712694;30;19943;-77
2022/06/26 10:12:24;;;;;;;;;;;;;;;19.67;81.87;99277.53;7734107;30;19934;-77
2022/06/26 10:16:33;;;;;;;;;;;;;;;19.58;79.18;99284.06;7763272;30;19978;-77
2022/06/26 10:20:36;;;;;;;;;;;;;;;19.53;79.93;99289.47;7754207;30;19935;-77
2022/06/26 10:25:00;;;;;;;;;;;;;;;19.59;81.66;99293.66;7762633;30;20277;-76
2022/06/26 10:29:06;;;;;;;;;;;;;;;19.72;81.85;99296.63;7754047;30;19944;-77
2022/06/26 10:33:09;;;;;;;;;;;;;;;19.74;81.17;99313.22;7762308;30;19971;-77
2022/06/26 10:37:13;;;;;;;;;;;;;;;19.71;81.46;99306.28;7770421;30;19945;-77
2022/06/26 10:45:37;;;;;;;;;;;;;;;19.83;81.65;99331.28;7756566;30;19970;-77
2022/06/26 10:49:45;;;;;;;;;;;;;;;19.87;79.02;99330.22;7755508;30;20397;-77
2022/06/26 10:53:47;;;;;;;;;;;;;;;19.89;76.56;99331.84;7756777;30;19946;-78
2022/06/26 10:57:49;;;;;;;;;;;;;;;19.87;77.57;99333.69;7759741;30;19946;-77
2022/06/26 11:01:54;;;;;;;;;;;;;;;19.85;78.90;99334.69;7763414;30;20260;-78
2022/06/26 11:05:59;;;;;;;;;;;;;;;19.84;78.64;99328.56;7749313;30;19935;-77
2022/06/26 11:10:10;;;;;;;;;;;;;;;19.88;78.24;99330.16;7762063;30;19967;-78
2022/06/26 11:14:12;;;;;;;;;;;;;;;19.91;77.97;99311.56;7767648;30;19967;-78
2022/06/26 11:18:13;;;;;;;;;;;;;;;19.97;78.00;99307.81;7763747;30;19990;-77
2022/06/26 11:22:17;;;;;;;;;;;;;;;20.07;78.66;99295.91;7751190;30;20005;-77
2022/06/26 11:26:20;;;;;;;;;;;;;;;20.09;78.57;99291.44;7763267;30;19982;-77
2022/06/26 11:30:23;;;;;;;;;;;;;;;20.13;79.06;99276.38;7761675;30;20075;-76
2022/06/26 11:34:25;;;;;;;;;;;;;;;20.15;80.16;99288.53;7768820;30;20001;-76
2022/06/26 11:38:27;;;;;;;;;;;;;;;20.13;78.19;99287.75;7768397;30;20059;-76
2022/06/26 11:42:28;;;;;;;;;;;;;;;20.14;79.95;99291.25;7769249;30;20664;-76
2022/06/26 11:46:29;;;;;;;;;;;;;;;20.12;78.31;99288.69;7766993;30;20061;-76
2022/06/26 11:50:35;;;;;;;;;;;;;;;20.17;78.98;99277.94;7768257;30;20385;-76
2022/06/26 11:54:37;;;;;;;;;;;;;;;20.14;77.94;99278.06;7766322;30;20013;-75
2022/06/26 11:58:44;;;;;;;;;;;;;;;20.23;78.07;99275.84;7770309;30;19935;-75
2022/06/26 12:02:47;;;;;;;;;;;;;;;20.33;77.72;99288.63;7766299;30;19935;-75
2022/06/26 12:06:50;;;;;;;;;;;;;;;20.31;74.15;99277.31;7760610;30;19986;-76
2022/06/26 12:10:52;;;;;;;;;;;;;;;20.32;74.98;99277.22;7762220;30;19943;-76
2022/06/26 12:14:54;;;;;;;;;;;;;;;20.38;75.09;99262.91;7766193;30;20723;-76
2022/06/26 12:18:55;;;;;;;;;;;;;;;20.45;75.14;99259.91;7752505;30;20077;-76
2022/06/26 12:22:56;;;;;;;;;;;;;;;20.56;76.66;99262.06;7770223;30;19965;-76
2022/06/26 12:26:58;;;;;;;;;;;;;;;20.60;75.87;99261.00;7760408;30;19946;-77
2022/06/26 12:31:01;;;;;;;;;;;;;;;20.58;75.84;99259.34;7750540;30;19943;-76
2022/06/26 12:35:03;;;;;;;;;;;;;;;20.32;74.82;99274.59;7768727;30;19982;-77
2022/06/26 12:39:05;;;;;;;;;;;;;;;20.16;74.80;99265.66;7769137;30;19935;-76
2022/06/26 12:43:28;;;;;;;;;;;;;;;20.09;76.67;99259.81;7754633;30;20688;-76
2022/06/26 12:47:29;;;;;;;;;;;;;;;20.06;75.85;99264.38;7749392;30;19952;-76
2022/06/26 12:51:32;;;;;;;;;;;;;;;20.33;76.50;99264.91;7768924;30;19935;-76
2022/06/26 12:55:33;;;;;;;;;;;;;;;20.58;76.00;99251.44;7760926;30;20334;-77
2022/06/26 12:59:42;;;;;;;;;;;;;;;20.70;74.87;99250.88;7771385;30;19946;-77
2022/06/26 13:03:46;;;;;;;;;;;;;;;20.80;73.95;99249.47;7763972;30;20451;-77
2022/06/26 13:07:48;;;;;;;;;;;;;;;20.97;75.15;99246.88;7770677;30;19997;-77
2022/06/26 13:11:51;;;;;;;;;;;;;;;20.98;72.05;99260.94;7767442;30;19969;-77
2022/06/26 13:15:58;;;;;;;;;;;;;;;21.03;73.65;99237.81;7764723;30;20026;-78
2022/06/26 13:20:00;;;;;;;;;;;;;;;20.95;72.33;99232.91;7764726;30;20499;-78
2022/06/26 13:24:03;;;;;;;;;;;;;;;20.84;74.44;99223.81;7772081;30;19962;-76
2022/06/26 13:28:11;;;;;;;;;;;;;;;20.75;75.94;99225.97;7745321;30;19973;-78
2022/06/26 13:32:38;;;;;;;;;;;;;;;20.74;75.07;99244.50;7761235;30;20298;-77
2022/06/26 13:36:56;;;;;;;;;;;;;;;20.87;72.99;99240.34;7762033;30;19958;-77
2022/06/26 13:40:59;;;;;;;;;;;;;;;21.04;72.90;99244.81;7758492;30;19939;-77
2022/06/26 13:45:12;;;;;;;;;;;;;;;21.23;73.06;99237.69;7745569;30;20822;-77
2022/06/26 13:49:21;;;;;;;;;;;;;;;21.29;72.59;99247.94;7760737;30;20274;-77
2022/06/26 13:53:26;;;;;;;;;;;;;;;21.16;70.64;99253.88;7761005;30;19940;-78
2022/06/26 13:57:29;;;;;;;;;;;;;;;21.02;72.31;99255.44;7761796;30;19934;-77
2022/06/26 14:01:30;;;;;;;;;;;;;;;20.96;73.81;99254.88;7756040;30;19935;-77
2022/06/26 14:05:32;;;;;;;;;;;;;;;20.91;74.18;99256.88;7765429;30;20432;-77
2022/06/26 14:09:35;;;;;;;;;;;;;;;20.78;74.37;99249.56;7760012;30;19939;-77
2022/06/26 14:13:43;;;;;;;;;;;;;;;20.68;76.05;99252.72;7754584;30;20019;-77
2022/06/26 14:17:44;;;;;;;;;;;;;;;20.58;77.73;99249.66;7746927;30;19935;-77
2022/06/26 14:25:55;;;;;;;;;;;;;;;20.49;78.23;99239.56;7767609;30;20015;-77
2022/06/26 14:26:08;;;;;;;;;;;;;;;20.38;78.44;99241.81;7766412;30;20026;-77
2022/06/26 14:30:09;;;;;;;;;;;;;;;20.26;79.69;99242.34;7763921;30;20025;-77
2022/06/26 14:34:11;;;;;;;;;;;;;;;20.19;81.07;99242.66;7751084;30;19956;-77
2022/06/26 14:38:14;;;;;;;;;;;;;;;20.26;81.94;99229.19;7757913;30;19941;-77
2022/06/26 14:42:15;;;;;;;;;;;;;;;20.32;80.88;99219.22;7763280;30;19971;-77
2022/06/26 14:46:16;;;;;;;;;;;;;;;20.46;80.36;99210.66;7767463;30;20412;-77
2022/06/26 14:50:18;;;;;;;;;;;;;;;20.49;80.15;99206.13;7751118;30;19935;-77
2022/06/26 14:54:19;;;;;;;;;;;;;;;20.53;81.29;99217.38;7766678;30;19939;-77
2022/06/26 14:58:26;;;;;;;;;;;;;;;20.52;82.04;99210.38;7762426;30;19993;-77
2022/06/26 15:02:29;;;;;;;;;;;;;;;20.51;82.39;99212.19;7757630;30;19942;-77
2022/06/26 15:06:32;;;;;;;;;;;;;;;20.60;81.05;99188.91;7763287;30;20298;-77
2022/06/26 15:10:34;;;;;;;;;;;;;;;20.70;80.58;99169.06;7761679;30;19974;-77
2022/06/26 15:14:36;;;;;;;;;;;;;;;20.87;81.44;99162.97;7746834;30;19939;-77
2022/06/26 15:18:39;;;;;;;;;;;;;;;21.13;78.78;99162.47;7743800;30;19935;-76
2022/06/26 15:22:58;;;;;;;;;;;;;;;21.67;78.44;99164.06;7749324;30;19935;-77
2022/06/26 15:27:00;;;;;;;;;;;;;;;22.05;75.05;99150.59;7766015;30;20310;-77
2022/06/26 15:31:18;;;;;;;;;;;;;;;22.00;73.85;99153.47;7758401;30;19939;-77
2022/06/26 15:35:24;;;;;;;;;;;;;;;21.80;71.64;99145.75;7763368;30;19939;-77
2022/06/26 15:39:27;;;;;;;;;;;;;;;21.64;72.18;99148.38;7747645;30;20720;-78
2022/06/26 15:43:32;;;;;;;;;;;;;;;21.69;73.24;99145.47;7763719;30;20005;-77
2022/06/26 15:47:34;;;;;;;;;;;;;;;21.85;71.99;99137.56;7743002;30;20323;-78
2022/06/26 15:51:38;;;;;;;;;;;;;;;21.72;70.00;99132.09;7764358;30;19973;-78
2022/06/26 15:55:40;;;;;;;;;;;;;;;21.68;71.42;99119.97;7764313;30;19935;-78
2022/06/26 15:59:45;;;;;;;;;;;;;;;21.74;72.24;99113.53;7752543;30;20703;-78
2022/06/26 16:03:51;;;;;;;;;;;;;;;21.74;72.65;99122.31;7762156;30;19935;-78
2022/06/26 16:07:53;;;;;;;;;;;;;;;21.63;72.00;99114.94;7747568;30;19974;-78
2022/06/26 16:12:12;;;;;;;;;;;;;;;21.48;70.91;99121.06;7757917;30;19943;-78
2022/06/26 16:16:30;;;;;;;;;;;;;;;21.36;72.29;99122.56;7756043;30;19935;-77
2022/06/26 16:20:32;;;;;;;;;;;;;;;21.14;73.99;99135.13;7770432;30;19935;-78
2022/06/26 16:28:56;;;;;;;;;;;;;;;20.85;77.00;99128.72;7766564;30;20389;-78
2022/06/26 16:33:01;;;;;;;;;;;;;;;20.78;77.27;99117.59;7746911;30;19935;-78
2022/06/26 16:37:03;;;;;;;;;;;;;;;20.71;78.59;99096.88;7753869;30;19935;-77
2022/06/26 16:41:05;;;;;;;;;;;;;;;20.62;79.93;99078.88;7752436;30;19993;-77
2022/06/26 16:45:08;;;;;;;;;;;;;;;20.50;80.57;99068.03;7737034;30;19935;-77
2022/06/26 16:49:09;;;;;;;;;;;;;;;20.41;80.47;99075.53;7754949;30;19935;-77
2022/06/26 16:53:12;;;;;;;;;;;;;;;20.32;82.52;99079.44;7769407;30;19939;-77
2022/06/26 16:57:17;;;;;;;;;;;;;;;20.29;82.07;99073.44;7755303;30;20492;-76
2022/06/26 17:01:20;;;;;;;;;;;;;;;20.31;82.73;99069.84;7743575;30;19946;-77
2022/06/26 17:05:22;;;;;;;;;;;;;;;20.36;83.40;99066.97;7751113;30;20034;-77
2022/06/26 17:10:05;;;;;;;;;;;;;;;20.31;82.52;99072.47;8555228;27;19923;-77
2022/06/26 17:14:07;;;;;;;;;;;;;;;20.19;82.95;99071.28;8529368;27;20628;-78
2022/06/26 17:18:09;;;;;;;;;;;;;;;20.15;84.29;99071.50;8498483;27;20386;-78
2022/06/26 17:22:11;;;;;;;;;;;;;;;20.07;85.52;99071.84;8481637;27;19931;-78
2022/06/26 17:26:14;;;;;;;;;;;;;;;20.07;85.77;99063.94;8505774;27;19951;-77
2022/06/26 17:30:20;;;;;;;;;;;;;;;20.07;86.52;99052.56;8503604;27;19985;-78
2022/06/26 17:34:23;;;;;;;;;;;;;;;20.07;86.61;99060.47;8487821;27;19934;-78
2022/06/26 17:38:27;;;;;;;;;;;;;;;19.99;86.00;99050.31;8497300;27;20367;-78
2022/06/26 17:42:33;;;;;;;;;;;;;;;19.94;87.05;99046.19;8489483;27;19943;-78
2022/06/26 18:18:22;;;;;;;;;;;;;;;19.72;88.19;99047.19;10486200;22;20092;-77
2022/06/26 18:22:33;;;;;;;;;;;;;;;19.72;88.13;99055.09;10440095;22;19923;-78
2022/06/26 18:26:55;;;;;;;;;;;;;;;19.64;88.96;99036.16;10440658;22;20013;-79
2022/06/26 18:31:17;;;;;;;;;;;;;;;19.65;89.08;99051.06;10404723;22;20240;-79
2022/06/26 18:35:41;;;;;;;;;;;;;;;19.55;89.62;99053.25;10395561;22;19955;-79
2022/06/26 18:39:56;;;;;;;;;;;;;;;19.45;89.73;99066.88;10394907;22;19927;-79
2022/06/26 18:44:11;;;;;;;;;;;;;;;19.42;90.82;99032.81;10390872;22;19923;-79
2022/06/26 18:48:14;;;;;;;;;;;;;;;19.42;90.08;99043.34;10325531;22;20278;-78
2022/06/26 18:52:32;;;;;;;;;;;;;;;19.37;89.32;99061.94;10345082;22;19923;-77
2022/06/26 18:56:34;;;;;;;;;;;;;;;19.32;89.42;99033.22;10333184;22;20642;-76
2022/06/26 19:00:36;;;;;;;;;;;;;;;19.29;88.63;99045.66;10322866;22;19981;-76
2022/06/26 19:04:37;;;;;;;;;;;;;;;19.26;87.65;99061.59;10379547;22;19949;-77
2022/06/26 19:08:59;;;;;;;;;;;;;;;19.20;88.34;99065.34;10381450;22;19927;-77
2022/06/26 19:17:22;;;;;;;;;;;;;;;19.15;88.37;99083.13;10403009;22;19919;-78
2022/06/26 19:21:23;;;;;;;;;;;;;;;19.10;87.41;99110.56;10432379;22;19919;-77
2022/06/26 19:25:25;;;;;;;;;;;;;;;18.99;87.28;99098.72;10377077;22;19998;-74
2022/06/26 19:29:26;;;;;;;;;;;;;;;18.92;88.85;99073.63;10397622;22;20013;-74
2022/06/26 19:33:28;;;;;;;;;;;;;;;18.85;89.79;99040.63;10380069;22;20385;-75
2022/06/26 19:37:29;;;;;;;;;;;;;;;18.77;89.99;99047.13;10397669;22;19951;-75
2022/06/26 19:41:31;;;;;;;;;;;;;;;18.68;90.65;99051.00;10347640;22;19934;-75
2022/06/26 19:45:32;;;;;;;;;;;;;;;18.57;91.59;99040.03;10370732;22;20290;-75
2022/06/26 19:53:53;;;;;;;;;;;;;;;18.40;92.20;99023.22;10424017;22;19968;-75
2022/06/26 19:57:55;;;;;;;;;;;;;;;18.35;91.98;99000.66;10423621;22;19958;-75
2022/06/26 20:01:57;;;;;;;;;;;;;;;18.30;92.17;98982.44;10420110;22;20042;-74
2022/06/26 20:05:58;;;;;;;;;;;;;;;18.29;92.28;99008.78;10421889;22;19945;-74
2022/06/26 20:09:59;;;;;;;;;;;;;;;18.17;92.63;99012.81;10424383;22;19923;-75
2022/06/26 20:14:02;;;;;;;;;;;;;;;18.07;93.23;99029.84;10449477;22;19930;-75
2022/06/26 20:18:04;;;;;;;;;;;;;;;17.98;93.87;99038.13;10421075;22;19934;-75
2022/06/26 20:22:05;;;;;;;;;;;;;;;17.98;94.26;99046.00;10425572;22;19927;-75
2022/06/26 20:26:07;;;;;;;;;;;;;;;17.95;94.30;99093.38;10424811;22;19923;-75
2022/06/26 20:30:09;;;;;;;;;;;;;;;17.89;94.83;99107.63;10420884;22;19957;-76
2022/06/26 20:34:10;;;;;;;;;;;;;;;17.84;95.00;99088.56;10421445;22;19923;-76
2022/06/26 20:38:12;;;;;;;;;;;;;;;17.79;95.12;99082.66;10423698;22;20185;-76
2022/06/26 20:42:13;;;;;;;;;;;;;;;17.79;95.09;99091.38;10422661;22;20166;-76
2022/06/26 20:46:14;;;;;;;;;;;;;;;17.77;94.81;99116.84;10444560;22;20313;-76
2022/06/26 20:50:16;;;;;;;;;;;;;;;17.76;94.71;99124.75;10395358;22;19934;-76
2022/06/26 20:54:17;;;;;;;;;;;;;;;17.69;94.81;99141.66;10451921;22;19922;-77
2022/06/26 20:58:19;;;;;;;;;;;;;;;17.58;95.14;99144.66;10451283;22;19935;-77
2022/06/26 21:02:20;;;;;;;;;;;;;;;17.50;95.70;99110.81;10400984;22;20475;-77
2022/06/26 21:06:22;;;;;;;;;;;;;;;17.52;95.93;99090.59;10451772;22;19923;-77
2022/06/26 21:10:23;;;;;;;;;;;;;;;17.56;96.32;99119.38;10421304;22;19923;-75
2022/06/26 21:14:25;;;;;;;;;;;;;;;17.55;96.00;99147.38;10423601;22;19923;-74
2022/06/26 21:18:29;;;;;;;;;;;;;;;17.50;95.99;99137.06;10417474;22;19923;-74
2022/06/26 21:22:30;;;;;;;;;;;;;;;17.55;96.20;99133.41;10419586;22;19930;-75
2022/06/26 21:26:32;;;;;;;;;;;;;;;17.55;96.55;99120.28;10422556;22;19954;-74
2022/06/26 21:30:34;;;;;;;;;;;;;;;17.52;96.17;99100.25;10417924;22;19923;-74
2022/06/26 21:34:35;;;;;;;;;;;;;;;17.52;95.72;99080.09;10422835;22;19922;-74
2022/06/26 21:38:38;;;;;;;;;;;;;;;17.49;95.50;99051.34;10420733;22;19923;-74
2022/06/26 21:42:40;;;;;;;;;;;;;;;17.51;95.00;99067.91;10420108;22;20817;-75
2022/06/26 21:46:41;;;;;;;;;;;;;;;17.37;96.04;99099.03;10415885;22;19923;-75
2022/06/26 21:50:43;;;;;;;;;;;;;;;17.36;96.21;99092.09;10421245;22;19923;-75
2022/06/26 21:54:46;;;;;;;;;;;;;;;17.34;96.82;99080.78;10421851;22;19930;-75
2022/06/26 21:58:48;;;;;;;;;;;;;;;17.38;96.93;99063.16;10421870;22;19923;-75
2022/06/26 22:02:50;;;;;;;;;;;;;;;17.40;97.25;99066.56;10423497;22;19923;-75
2022/06/26 22:06:51;;;;;;;;;;;;;;;17.40;96.99;99087.56;10446468;22;19923;-75
2022/06/26 22:10:53;;;;;;;;;;;;;;;17.38;97.62;99110.41;10424159;22;19965;-74